sensor_id;sensor_type;location;lat;lon;timestamp;temperature;humidity
26278;DHT22;14000;52.056;8.510;2023-02-28T00:00:27;-1.30;99.90
26278;DHT22;14000;52.056;8.510;2023-02-28T00:02:53;-1.30;99.90
26278;DHT22;14000;52.056;8.510;2023-02-28T00:05:20;-1.40;99.90
26278;DHT22;14000;52.056;8.510;2023-02-28T00:07:47;-1.40;99.90
26278;DHT22;14000;52.056;8.510;2023-02-28T00:10:18;-1.40;99.90
26278;DHT22;14000;52.056;8.510;2023-02-28T00:12:46;-1.40;99.90
26278;DHT22;14000;52.056;8.510;2023-02-28T00:15:12;-1.40;99.90
26278;DHT22;14000;52.056;8.510;2023-02-28T00:17:38;-1.40;99.90
26278;DHT22;14000;52.056;8.510;2023-02-28T00:20:04;-1.40;99.90
26278;DHT22;14000;52.056;8.510;2023-02-28T00:22:34;-1.40;99.90
26278;DHT22;14000;52.056;8.510;2023-02-28T00:24:59;-1.40;99.90
26278;DHT22;14000;52.056;8.510;2023-02-28T00:27:25;-1.50;99.90
26278;DHT22;14000;52.056;8.510;2023-02-28T00:29:50;-1.50;99.90
26278;DHT22;14000;52.056;8.510;2023-02-28T00:32:16;-1.50;99.90
26278;DHT22;14000;52.056;8.510;2023-02-28T00:34:43;-1.40;99.90
26278;DHT22;14000;52.056;8.510;2023-02-28T00:37:09;-1.40;99.90
26278;DHT22;14000;52.056;8.510;2023-02-28T00:39:37;-1.50;99.90
26278;DHT22;14000;52.056;8.510;2023-02-28T00:42:04;-1.50;99.90
26278;DHT22;14000;52.056;8.510;2023-02-28T00:44:30;-1.50;99.90
26278;DHT22;14000;52.056;8.510;2023-02-28T00:46:56;-1.50;99.90
26278;DHT22;14000;52.056;8.510;2023-02-28T00:49:22;-1.50;99.90
26278;DHT22;14000;52.056;8.510;2023-02-28T00:51:48;-1.50;99.90
26278;DHT22;14000;52.056;8.510;2023-02-28T00:54:13;-1.50;99.90
26278;DHT22;14000;52.056;8.510;2023-02-28T00:56:39;-1.50;99.90
26278;DHT22;14000;52.056;8.510;2023-02-28T00:59:05;-1.50;99.90
26278;DHT22;14000;52.056;8.510;2023-02-28T01:01:30;-1.50;99.90
26278;DHT22;14000;52.056;8.510;2023-02-28T01:03:56;-1.50;99.90
26278;DHT22;14000;52.056;8.510;2023-02-28T01:06:21;-1.60;99.90
26278;DHT22;14000;52.056;8.510;2023-02-28T01:08:47;-1.60;99.90
26278;DHT22;14000;52.056;8.510;2023-02-28T01:11:15;-1.60;99.90
26278;DHT22;14000;52.056;8.510;2023-02-28T01:13:42;-1.60;99.90
26278;DHT22;14000;52.056;8.510;2023-02-28T01:16:08;-1.60;99.90
26278;DHT22;14000;52.056;8.510;2023-02-28T01:18:33;-1.60;99.90
26278;DHT22;14000;52.056;8.510;2023-02-28T01:21:04;-1.60;99.90
26278;DHT22;14000;52.056;8.510;2023-02-28T01:23:31;-1.60;99.90
26278;DHT22;14000;52.056;8.510;2023-02-28T01:26:03;-1.60;99.90
26278;DHT22;14000;52.056;8.510;2023-02-28T01:28:29;-1.70;99.90
26278;DHT22;14000;52.056;8.510;2023-02-28T01:30:55;-1.70;99.90
26278;DHT22;14000;52.056;8.510;2023-02-28T01:33:20;-1.70;99.90
26278;DHT22;14000;52.056;8.510;2023-02-28T01:35:46;-1.70;99.90
26278;DHT22;14000;52.056;8.510;2023-02-28T01:38:11;-1.80;99.90
26278;DHT22;14000;52.056;8.510;2023-02-28T01:40:37;-1.80;99.90
26278;DHT22;14000;52.056;8.510;2023-02-28T01:43:02;-1.80;99.90
26278;DHT22;14000;52.056;8.510;2023-02-28T01:45:30;-1.80;99.90
26278;DHT22;14000;52.056;8.510;2023-02-28T01:48:03;-1.80;99.90
26278;DHT22;14000;52.056;8.510;2023-02-28T01:50:34;-1.90;99.90
26278;DHT22;14000;52.056;8.510;2023-02-28T01:53:04;-1.90;99.90
26278;DHT22;14000;52.056;8.510;2023-02-28T01:55:30;-2.00;99.90
26278;DHT22;14000;52.056;8.510;2023-02-28T01:58:00;-2.00;99.90
26278;DHT22;14000;52.056;8.510;2023-02-28T02:00:28;-2.00;99.90
26278;DHT22;14000;52.056;8.510;2023-02-28T02:02:58;-2.00;99.90
26278;DHT22;14000;52.056;8.510;2023-02-28T02:05:26;-2.00;99.90
26278;DHT22;14000;52.056;8.510;2023-02-28T02:08:01;-2.00;99.90
26278;DHT22;14000;52.056;8.510;2023-02-28T02:10:35;-2.10;99.90
26278;DHT22;14000;52.056;8.510;2023-02-28T02:20:59;-2.20;99.90
26278;DHT22;14000;52.056;8.510;2023-02-28T02:26:39;-2.10;99.90
26278;DHT22;14000;52.056;8.510;2023-02-28T02:34:58;-2.20;99.90
26278;DHT22;14000;52.056;8.510;2023-02-28T02:40:22;-2.20;99.90
26278;DHT22;14000;52.056;8.510;2023-02-28T02:43:00;-2.20;99.90
26278;DHT22;14000;52.056;8.510;2023-02-28T02:48:03;-2.20;99.90
26278;DHT22;14000;52.056;8.510;2023-02-28T02:50:34;-2.20;99.90
26278;DHT22;14000;52.056;8.510;2023-02-28T02:53:03;-2.20;99.90
26278;DHT22;14000;52.056;8.510;2023-02-28T02:55:32;-2.30;99.90
26278;DHT22;14000;52.056;8.510;2023-02-28T02:58:02;-2.20;99.90
26278;DHT22;14000;52.056;8.510;2023-02-28T03:00:34;-2.30;99.90
26278;DHT22;14000;52.056;8.510;2023-02-28T03:03:01;-2.30;99.90
26278;DHT22;14000;52.056;8.510;2023-02-28T03:05:33;-2.30;99.90
26278;DHT22;14000;52.056;8.510;2023-02-28T03:08:03;-2.40;99.90
26278;DHT22;14000;52.056;8.510;2023-02-28T03:10:32;-2.40;99.90
26278;DHT22;14000;52.056;8.510;2023-02-28T03:13:18;-2.30;99.90
26278;DHT22;14000;52.056;8.510;2023-02-28T03:15:58;-2.30;99.90
26278;DHT22;14000;52.056;8.510;2023-02-28T03:21:23;-2.50;99.90
26278;DHT22;14000;52.056;8.510;2023-02-28T03:24:01;-2.50;99.90
26278;DHT22;14000;52.056;8.510;2023-02-28T03:26:29;-2.50;99.90
26278;DHT22;14000;52.056;8.510;2023-02-28T03:29:14;-2.60;99.90
26278;DHT22;14000;52.056;8.510;2023-02-28T03:31:54;-2.60;99.90
26278;DHT22;14000;52.056;8.510;2023-02-28T03:34:36;-2.60;99.90
26278;DHT22;14000;52.056;8.510;2023-02-28T03:37:13;-2.60;99.90
26278;DHT22;14000;52.056;8.510;2023-02-28T03:39:45;-2.60;99.90
26278;DHT22;14000;52.056;8.510;2023-02-28T03:42:16;-2.70;99.90
26278;DHT22;14000;52.056;8.510;2023-02-28T03:44:58;-2.70;99.90
26278;DHT22;14000;52.056;8.510;2023-02-28T03:47:29;-2.70;99.90
26278;DHT22;14000;52.056;8.510;2023-02-28T03:50:01;-2.70;99.90
26278;DHT22;14000;52.056;8.510;2023-02-28T03:52:31;-2.80;99.90
26278;DHT22;14000;52.056;8.510;2023-02-28T03:55:02;-2.80;99.90
26278;DHT22;14000;52.056;8.510;2023-02-28T03:57:41;-2.80;99.90
26278;DHT22;14000;52.056;8.510;2023-02-28T04:00:16;-2.70;99.90
26278;DHT22;14000;52.056;8.510;2023-02-28T04:02:43;-2.80;99.90
26278;DHT22;14000;52.056;8.510;2023-02-28T04:05:09;-2.80;99.90
26278;DHT22;14000;52.056;8.510;2023-02-28T04:07:34;-2.80;99.90
26278;DHT22;14000;52.056;8.510;2023-02-28T04:10:00;-2.90;99.90
26278;DHT22;14000;52.056;8.510;2023-02-28T04:12:26;-2.90;99.90
26278;DHT22;14000;52.056;8.510;2023-02-28T04:14:51;-2.90;99.90
26278;DHT22;14000;52.056;8.510;2023-02-28T04:17:17;-2.90;99.90
26278;DHT22;14000;52.056;8.510;2023-02-28T04:19:44;-3.00;99.90
26278;DHT22;14000;52.056;8.510;2023-02-28T04:22:10;-3.00;99.90
26278;DHT22;14000;52.056;8.510;2023-02-28T04:24:36;-3.00;99.90
26278;DHT22;14000;52.056;8.510;2023-02-28T04:27:02;-3.00;99.90
26278;DHT22;14000;52.056;8.510;2023-02-28T04:29:30;-3.00;99.90
26278;DHT22;14000;52.056;8.510;2023-02-28T04:32:00;-3.10;99.90
26278;DHT22;14000;52.056;8.510;2023-02-28T04:34:28;-3.00;99.90
26278;DHT22;14000;52.056;8.510;2023-02-28T04:36:56;-3.10;99.90
26278;DHT22;14000;52.056;8.510;2023-02-28T04:39:23;-3.10;99.90
26278;DHT22;14000;52.056;8.510;2023-02-28T04:41:49;-3.20;99.90
26278;DHT22;14000;52.056;8.510;2023-02-28T04:44:15;-3.10;99.90
26278;DHT22;14000;52.056;8.510;2023-02-28T04:46:41;-3.20;99.90
26278;DHT22;14000;52.056;8.510;2023-02-28T04:49:07;-3.10;99.90
26278;DHT22;14000;52.056;8.510;2023-02-28T04:51:33;-3.20;99.90
26278;DHT22;14000;52.056;8.510;2023-02-28T04:53:59;-3.20;99.90
26278;DHT22;14000;52.056;8.510;2023-02-28T04:56:26;-3.20;99.90
26278;DHT22;14000;52.056;8.510;2023-02-28T04:58:52;-3.30;99.90
26278;DHT22;14000;52.056;8.510;2023-02-28T05:01:29;-3.30;99.90
26278;DHT22;14000;52.056;8.510;2023-02-28T05:03:57;-3.30;99.90
26278;DHT22;14000;52.056;8.510;2023-02-28T05:06:25;-3.30;99.90
26278;DHT22;14000;52.056;8.510;2023-02-28T05:08:52;-3.30;99.90
26278;DHT22;14000;52.056;8.510;2023-02-28T05:11:26;-3.30;99.90
26278;DHT22;14000;52.056;8.510;2023-02-28T05:13:54;-3.30;99.90
26278;DHT22;14000;52.056;8.510;2023-02-28T05:16:20;-3.30;99.90
26278;DHT22;14000;52.056;8.510;2023-02-28T05:18:46;-3.30;99.90
26278;DHT22;14000;52.056;8.510;2023-02-28T05:21:39;-3.40;99.90
26278;DHT22;14000;52.056;8.510;2023-02-28T05:24:09;-3.40;99.90
26278;DHT22;14000;52.056;8.510;2023-02-28T05:26:42;-3.50;99.90
26278;DHT22;14000;52.056;8.510;2023-02-28T05:29:10;-3.40;99.90
26278;DHT22;14000;52.056;8.510;2023-02-28T05:31:38;-3.50;99.90
26278;DHT22;14000;52.056;8.510;2023-02-28T05:34:04;-3.50;99.90
26278;DHT22;14000;52.056;8.510;2023-02-28T05:36:30;-3.60;99.90
26278;DHT22;14000;52.056;8.510;2023-02-28T05:38:56;-3.60;99.90
26278;DHT22;14000;52.056;8.510;2023-02-28T05:41:22;-3.60;99.90
26278;DHT22;14000;52.056;8.510;2023-02-28T05:43:48;-3.60;99.90
26278;DHT22;14000;52.056;8.510;2023-02-28T05:46:14;-3.60;99.90
26278;DHT22;14000;52.056;8.510;2023-02-28T05:48:41;-3.60;99.90
26278;DHT22;14000;52.056;8.510;2023-02-28T05:51:08;-3.60;99.90
26278;DHT22;14000;52.056;8.510;2023-02-28T05:53:35;-3.60;99.90
26278;DHT22;14000;52.056;8.510;2023-02-28T05:56:01;-3.60;99.90
26278;DHT22;14000;52.056;8.510;2023-02-28T05:58:27;-3.60;99.90
26278;DHT22;14000;52.056;8.510;2023-02-28T06:00:56;-3.60;99.90
26278;DHT22;14000;52.056;8.510;2023-02-28T06:03:22;-3.60;99.90
26278;DHT22;14000;52.056;8.510;2023-02-28T06:05:47;-3.60;99.90
26278;DHT22;14000;52.056;8.510;2023-02-28T06:08:13;-3.60;99.90
26278;DHT22;14000;52.056;8.510;2023-02-28T06:10:39;-3.60;99.90
26278;DHT22;14000;52.056;8.510;2023-02-28T06:13:05;-3.70;99.90
26278;DHT22;14000;52.056;8.510;2023-02-28T06:15:31;-3.70;99.90
26278;DHT22;14000;52.056;8.510;2023-02-28T06:17:57;-3.70;99.90
26278;DHT22;14000;52.056;8.510;2023-02-28T06:20:25;-3.70;99.90
26278;DHT22;14000;52.056;8.510;2023-02-28T06:22:54;-3.70;99.90
26278;DHT22;14000;52.056;8.510;2023-02-28T06:25:21;-3.70;99.90
26278;DHT22;14000;52.056;8.510;2023-02-28T06:27:47;-3.70;99.90
26278;DHT22;14000;52.056;8.510;2023-02-28T06:30:13;-3.70;99.90
26278;DHT22;14000;52.056;8.510;2023-02-28T06:32:39;-3.80;99.90
26278;DHT22;14000;52.056;8.510;2023-02-28T06:35:05;-3.80;99.90
26278;DHT22;14000;52.056;8.510;2023-02-28T06:37:32;-3.80;99.90
26278;DHT22;14000;52.056;8.510;2023-02-28T06:39:58;-3.80;99.90
26278;DHT22;14000;52.056;8.510;2023-02-28T06:42:24;-3.80;99.90
26278;DHT22;14000;52.056;8.510;2023-02-28T06:44:57;-3.80;99.90
26278;DHT22;14000;52.056;8.510;2023-02-28T06:47:23;-3.80;99.90
26278;DHT22;14000;52.056;8.510;2023-02-28T06:49:49;-3.70;99.90
26278;DHT22;14000;52.056;8.510;2023-02-28T06:52:15;-3.70;99.90
26278;DHT22;14000;52.056;8.510;2023-02-28T06:54:41;-3.70;99.90
26278;DHT22;14000;52.056;8.510;2023-02-28T06:57:07;-3.60;99.90
26278;DHT22;14000;52.056;8.510;2023-02-28T06:59:33;-3.60;99.90
26278;DHT22;14000;52.056;8.510;2023-02-28T07:02:00;-3.60;99.90
26278;DHT22;14000;52.056;8.510;2023-02-28T07:04:27;-3.50;99.90
26278;DHT22;14000;52.056;8.510;2023-02-28T07:06:53;-3.50;99.90
26278;DHT22;14000;52.056;8.510;2023-02-28T07:09:21;-3.50;99.90
26278;DHT22;14000;52.056;8.510;2023-02-28T07:11:46;-3.40;99.90
26278;DHT22;14000;52.056;8.510;2023-02-28T07:14:12;-3.40;99.90
26278;DHT22;14000;52.056;8.510;2023-02-28T07:16:38;-3.40;99.90
26278;DHT22;14000;52.056;8.510;2023-02-28T07:19:04;-3.30;99.90
26278;DHT22;14000;52.056;8.510;2023-02-28T07:21:29;-3.20;99.90
26278;DHT22;14000;52.056;8.510;2023-02-28T07:23:55;-3.20;99.90
26278;DHT22;14000;52.056;8.510;2023-02-28T07:26:22;-3.10;99.90
26278;DHT22;14000;52.056;8.510;2023-02-28T07:28:48;-3.10;99.90
26278;DHT22;14000;52.056;8.510;2023-02-28T07:31:15;-3.00;99.90
26278;DHT22;14000;52.056;8.510;2023-02-28T07:33:42;-3.00;99.90
26278;DHT22;14000;52.056;8.510;2023-02-28T07:36:12;-2.90;99.90
26278;DHT22;14000;52.056;8.510;2023-02-28T07:38:43;-2.90;99.90
26278;DHT22;14000;52.056;8.510;2023-02-28T07:41:09;-2.80;99.90
26278;DHT22;14000;52.056;8.510;2023-02-28T07:43:35;-2.70;99.90
26278;DHT22;14000;52.056;8.510;2023-02-28T07:46:09;-2.60;99.90
26278;DHT22;14000;52.056;8.510;2023-02-28T07:48:35;-2.50;99.90
26278;DHT22;14000;52.056;8.510;2023-02-28T07:51:01;-2.40;99.90
26278;DHT22;14000;52.056;8.510;2023-02-28T07:53:28;-2.30;99.90
26278;DHT22;14000;52.056;8.510;2023-02-28T07:55:58;-2.30;99.90
26278;DHT22;14000;52.056;8.510;2023-02-28T07:58:25;-2.20;99.90
26278;DHT22;14000;52.056;8.510;2023-02-28T08:00:51;-2.10;99.90
26278;DHT22;14000;52.056;8.510;2023-02-28T08:03:20;-2.00;99.90
26278;DHT22;14000;52.056;8.510;2023-02-28T08:05:46;-1.90;99.90
26278;DHT22;14000;52.056;8.510;2023-02-28T08:08:14;-1.80;99.90
26278;DHT22;14000;52.056;8.510;2023-02-28T08:10:44;-1.60;99.90
26278;DHT22;14000;52.056;8.510;2023-02-28T08:13:11;-1.50;99.90
26278;DHT22;14000;52.056;8.510;2023-02-28T08:15:36;-1.40;99.90
26278;DHT22;14000;52.056;8.510;2023-02-28T08:18:04;-1.30;99.90
26278;DHT22;14000;52.056;8.510;2023-02-28T08:20:30;-1.20;99.90
26278;DHT22;14000;52.056;8.510;2023-02-28T08:22:56;-1.10;99.90
26278;DHT22;14000;52.056;8.510;2023-02-28T08:25:21;-1.10;99.90
26278;DHT22;14000;52.056;8.510;2023-02-28T08:27:47;-1.10;99.90
26278;DHT22;14000;52.056;8.510;2023-02-28T08:30:13;-1.10;99.90
26278;DHT22;14000;52.056;8.510;2023-02-28T08:32:40;-0.90;99.90
26278;DHT22;14000;52.056;8.510;2023-02-28T08:35:06;-0.80;99.90
26278;DHT22;14000;52.056;8.510;2023-02-28T08:37:32;-0.70;99.90
26278;DHT22;14000;52.056;8.510;2023-02-28T08:39:57;-0.60;99.90
26278;DHT22;14000;52.056;8.510;2023-02-28T08:42:24;-0.50;99.90
26278;DHT22;14000;52.056;8.510;2023-02-28T08:44:52;-0.50;99.90
26278;DHT22;14000;52.056;8.510;2023-02-28T08:47:18;-0.40;99.90
26278;DHT22;14000;52.056;8.510;2023-02-28T08:49:44;-0.30;99.90
26278;DHT22;14000;52.056;8.510;2023-02-28T08:52:10;-0.30;99.90
26278;DHT22;14000;52.056;8.510;2023-02-28T08:54:36;-0.20;99.90
26278;DHT22;14000;52.056;8.510;2023-02-28T08:57:02;-0.20;99.90
26278;DHT22;14000;52.056;8.510;2023-02-28T08:59:28;-0.10;99.90
26278;DHT22;14000;52.056;8.510;2023-02-28T09:01:54;-0.10;99.90
26278;DHT22;14000;52.056;8.510;2023-02-28T09:04:20;0.00;99.90
26278;DHT22;14000;52.056;8.510;2023-02-28T09:06:46;0.10;99.90
26278;DHT22;14000;52.056;8.510;2023-02-28T09:09:14;0.30;99.90
26278;DHT22;14000;52.056;8.510;2023-02-28T09:11:39;0.50;99.90
26278;DHT22;14000;52.056;8.510;2023-02-28T09:14:05;0.60;99.90
26278;DHT22;14000;52.056;8.510;2023-02-28T09:16:32;0.60;99.90
26278;DHT22;14000;52.056;8.510;2023-02-28T09:18:58;0.70;99.90
26278;DHT22;14000;52.056;8.510;2023-02-28T09:21:27;0.80;99.90
26278;DHT22;14000;52.056;8.510;2023-02-28T09:23:53;1.00;99.90
26278;DHT22;14000;52.056;8.510;2023-02-28T09:26:24;1.00;99.90
26278;DHT22;14000;52.056;8.510;2023-02-28T09:28:51;1.20;99.90
26278;DHT22;14000;52.056;8.510;2023-02-28T09:31:19;1.30;99.90
26278;DHT22;14000;52.056;8.510;2023-02-28T09:33:50;1.30;99.90
26278;DHT22;14000;52.056;8.510;2023-02-28T09:36:16;1.40;99.90
26278;DHT22;14000;52.056;8.510;2023-02-28T09:38:42;1.40;99.90
26278;DHT22;14000;52.056;8.510;2023-02-28T09:41:17;1.40;99.90
26278;DHT22;14000;52.056;8.510;2023-02-28T09:43:59;1.40;99.90
26278;DHT22;14000;52.056;8.510;2023-02-28T09:46:35;1.40;99.90
26278;DHT22;14000;52.056;8.510;2023-02-28T09:49:07;1.50;99.90
26278;DHT22;14000;52.056;8.510;2023-02-28T09:54:15;1.70;99.90
26278;DHT22;14000;52.056;8.510;2023-02-28T09:56:46;1.70;99.90
26278;DHT22;14000;52.056;8.510;2023-02-28T10:04:58;2.00;99.90
26278;DHT22;14000;52.056;8.510;2023-02-28T10:10:40;2.20;99.90
26278;DHT22;14000;52.056;8.510;2023-02-28T10:13:15;2.50;99.90
26278;DHT22;14000;52.056;8.510;2023-02-28T10:15:42;2.90;99.90
26278;DHT22;14000;52.056;8.510;2023-02-28T10:18:13;2.80;99.90
26278;DHT22;14000;52.056;8.510;2023-02-28T10:20:41;2.90;99.90
26278;DHT22;14000;52.056;8.510;2023-02-28T10:25:39;3.10;99.90
26278;DHT22;14000;52.056;8.510;2023-02-28T10:28:10;3.20;99.90
26278;DHT22;14000;52.056;8.510;2023-02-28T10:30:50;3.20;99.90
26278;DHT22;14000;52.056;8.510;2023-02-28T10:33:24;3.20;99.90
26278;DHT22;14000;52.056;8.510;2023-02-28T10:35:51;3.20;99.90
26278;DHT22;14000;52.056;8.510;2023-02-28T10:38:24;3.20;99.90
26278;DHT22;14000;52.056;8.510;2023-02-28T10:40:50;3.40;99.90
26278;DHT22;14000;52.056;8.510;2023-02-28T10:46:04;3.40;99.90
26278;DHT22;14000;52.056;8.510;2023-02-28T10:51:04;3.50;99.90
26278;DHT22;14000;52.056;8.510;2023-02-28T10:53:40;3.70;99.90
26278;DHT22;14000;52.056;8.510;2023-02-28T11:01:39;4.00;99.90
26278;DHT22;14000;52.056;8.510;2023-02-28T11:06:57;3.80;99.90
26278;DHT22;14000;52.056;8.510;2023-02-28T11:09:28;4.00;99.90
26278;DHT22;14000;52.056;8.510;2023-02-28T11:11:57;4.10;99.90
26278;DHT22;14000;52.056;8.510;2023-02-28T11:14:28;4.10;99.90
26278;DHT22;14000;52.056;8.510;2023-02-28T11:17:00;4.10;99.90
26278;DHT22;14000;52.056;8.510;2023-02-28T11:19:29;4.30;99.90
26278;DHT22;14000;52.056;8.510;2023-02-28T11:22:01;4.40;99.90
26278;DHT22;14000;52.056;8.510;2023-02-28T11:24:31;4.50;99.90
26278;DHT22;14000;52.056;8.510;2023-02-28T11:26:57;4.70;99.90
26278;DHT22;14000;52.056;8.510;2023-02-28T11:29:28;5.00;99.90
26278;DHT22;14000;52.056;8.510;2023-02-28T11:32:18;5.10;99.90
26278;DHT22;14000;52.056;8.510;2023-02-28T11:34:45;5.30;99.90
26278;DHT22;14000;52.056;8.510;2023-02-28T11:37:16;5.40;99.90
26278;DHT22;14000;52.056;8.510;2023-02-28T11:39:44;5.40;99.90
26278;DHT22;14000;52.056;8.510;2023-02-28T11:42:32;5.30;99.90
26278;DHT22;14000;52.056;8.510;2023-02-28T11:50:40;9.20;99.90
26278;DHT22;14000;52.056;8.510;2023-02-28T11:55:55;11.90;99.90
26278;DHT22;14000;52.056;8.510;2023-02-28T12:11:30;15.40;99.90
26278;DHT22;14000;52.056;8.510;2023-02-28T12:17:05;13.40;99.90
26278;DHT22;14000;52.056;8.510;2023-02-28T12:22:32;12.30;99.90
26278;DHT22;14000;52.056;8.510;2023-02-28T12:27:36;10.90;99.90
26278;DHT22;14000;52.056;8.510;2023-02-28T12:30:22;10.00;99.90
26278;DHT22;14000;52.056;8.510;2023-02-28T12:32:55;9.40;99.90
26278;DHT22;14000;52.056;8.510;2023-02-28T12:35:26;9.30;99.90
26278;DHT22;14000;52.056;8.510;2023-02-28T12:38:05;9.20;99.90
26278;DHT22;14000;52.056;8.510;2023-02-28T12:40:44;8.90;99.90
26278;DHT22;14000;52.056;8.510;2023-02-28T12:43:12;8.60;99.90
26278;DHT22;14000;52.056;8.510;2023-02-28T12:45:46;8.20;99.90
26278;DHT22;14000;52.056;8.510;2023-02-28T12:48:22;7.90;99.90
26278;DHT22;14000;52.056;8.510;2023-02-28T12:50:50;7.70;99.90
26278;DHT22;14000;52.056;8.510;2023-02-28T12:53:26;7.40;99.90
26278;DHT22;14000;52.056;8.510;2023-02-28T13:07:38;7.80;99.90
26278;DHT22;14000;52.056;8.510;2023-02-28T13:10:08;7.90;99.90
26278;DHT22;14000;52.056;8.510;2023-02-28T13:12:35;7.80;99.90
26278;DHT22;14000;52.056;8.510;2023-02-28T13:15:07;8.00;99.90
26278;DHT22;14000;52.056;8.510;2023-02-28T13:17:39;8.00;99.90
26278;DHT22;14000;52.056;8.510;2023-02-28T13:20:24;8.00;99.90
26278;DHT22;14000;52.056;8.510;2023-02-28T13:22:53;8.30;99.90
26278;DHT22;14000;52.056;8.510;2023-02-28T13:27:49;8.40;99.90
26278;DHT22;14000;52.056;8.510;2023-02-28T13:33:35;8.70;99.90
26278;DHT22;14000;52.056;8.510;2023-02-28T13:38:45;8.90;99.90
26278;DHT22;14000;52.056;8.510;2023-02-28T13:44:14;9.00;99.90
26278;DHT22;14000;52.056;8.510;2023-02-28T13:49:33;8.70;99.90
26278;DHT22;14000;52.056;8.510;2023-02-28T13:57:31;8.80;99.90
26278;DHT22;14000;52.056;8.510;2023-02-28T14:05:32;9.30;99.90
26278;DHT22;14000;52.056;8.510;2023-02-28T14:08:06;9.30;99.90
26278;DHT22;14000;52.056;8.510;2023-02-28T14:10:40;9.10;99.90
26278;DHT22;14000;52.056;8.510;2023-02-28T14:15:46;9.10;99.90
26278;DHT22;14000;52.056;8.510;2023-02-28T14:18:29;9.30;99.90
26278;DHT22;14000;52.056;8.510;2023-02-28T14:21:33;9.40;99.90
26278;DHT22;14000;52.056;8.510;2023-02-28T14:24:23;9.30;99.90
26278;DHT22;14000;52.056;8.510;2023-02-28T14:27:22;9.50;99.90
26278;DHT22;14000;52.056;8.510;2023-02-28T14:35:16;9.50;99.90
26278;DHT22;14000;52.056;8.510;2023-02-28T14:37:44;9.50;99.90
26278;DHT22;14000;52.056;8.510;2023-02-28T14:40:19;9.60;99.90
26278;DHT22;14000;52.056;8.510;2023-02-28T14:43:00;9.90;99.90
26278;DHT22;14000;52.056;8.510;2023-02-28T14:45:30;9.70;99.90
26278;DHT22;14000;52.056;8.510;2023-02-28T14:47:57;9.60;99.90
26278;DHT22;14000;52.056;8.510;2023-02-28T14:50:35;9.60;99.90
26278;DHT22;14000;52.056;8.510;2023-02-28T14:53:01;9.80;99.90
26278;DHT22;14000;52.056;8.510;2023-02-28T14:55:30;9.60;99.90
26278;DHT22;14000;52.056;8.510;2023-02-28T14:57:59;9.70;99.90
26278;DHT22;14000;52.056;8.510;2023-02-28T15:00:30;9.60;99.90
26278;DHT22;14000;52.056;8.510;2023-02-28T15:02:59;9.60;99.90
26278;DHT22;14000;52.056;8.510;2023-02-28T15:08:11;9.10;99.90
26278;DHT22;14000;52.056;8.510;2023-02-28T15:10:40;9.00;99.90
26278;DHT22;14000;52.056;8.510;2023-02-28T15:13:12;8.90;99.90
26278;DHT22;14000;52.056;8.510;2023-02-28T15:15:51;8.90;99.90
26278;DHT22;14000;52.056;8.510;2023-02-28T15:18:45;8.80;99.90
26278;DHT22;14000;52.056;8.510;2023-02-28T15:21:23;8.60;99.90
26278;DHT22;14000;52.056;8.510;2023-02-28T15:26:37;8.60;99.90
26278;DHT22;14000;52.056;8.510;2023-02-28T15:29:12;8.40;99.90
26278;DHT22;14000;52.056;8.510;2023-02-28T15:31:45;8.40;99.90
26278;DHT22;14000;52.056;8.510;2023-02-28T15:34:19;8.40;99.90
26278;DHT22;14000;52.056;8.510;2023-02-28T15:36:47;8.30;99.90
26278;DHT22;14000;52.056;8.510;2023-02-28T15:39:27;8.40;99.90
26278;DHT22;14000;52.056;8.510;2023-02-28T15:42:18;8.60;99.90
26278;DHT22;14000;52.056;8.510;2023-02-28T15:44:44;8.40;99.90
26278;DHT22;14000;52.056;8.510;2023-02-28T15:47:21;8.10;99.90
26278;DHT22;14000;52.056;8.510;2023-02-28T15:52:28;8.00;99.90
26278;DHT22;14000;52.056;8.510;2023-02-28T15:54:57;8.10;99.90
26278;DHT22;14000;52.056;8.510;2023-02-28T15:57:28;8.00;99.90
26278;DHT22;14000;52.056;8.510;2023-02-28T16:00:00;7.80;99.90
26278;DHT22;14000;52.056;8.510;2023-02-28T16:02:35;7.60;99.90
26278;DHT22;14000;52.056;8.510;2023-02-28T16:07:37;7.50;99.90
26278;DHT22;14000;52.056;8.510;2023-02-28T16:10:04;7.30;99.90
26278;DHT22;14000;52.056;8.510;2023-02-28T16:12:33;7.30;99.90
26278;DHT22;14000;52.056;8.510;2023-02-28T16:15:01;7.20;99.90
26278;DHT22;14000;52.056;8.510;2023-02-28T16:17:35;7.00;99.90
26278;DHT22;14000;52.056;8.510;2023-02-28T16:20:12;6.90;99.90
26278;DHT22;14000;52.056;8.510;2023-02-28T16:22:38;6.80;99.90
26278;DHT22;14000;52.056;8.510;2023-02-28T16:25:04;6.60;99.90
26278;DHT22;14000;52.056;8.510;2023-02-28T16:27:35;6.50;99.90
26278;DHT22;14000;52.056;8.510;2023-02-28T16:30:02;6.50;99.90
26278;DHT22;14000;52.056;8.510;2023-02-28T16:32:28;6.40;99.90
26278;DHT22;14000;52.056;8.510;2023-02-28T16:34:54;6.30;99.90
26278;DHT22;14000;52.056;8.510;2023-02-28T16:37:20;6.20;99.90
26278;DHT22;14000;52.056;8.510;2023-02-28T16:39:45;6.00;99.90
26278;DHT22;14000;52.056;8.510;2023-02-28T16:42:31;5.80;99.90
26278;DHT22;14000;52.056;8.510;2023-02-28T16:44:57;5.80;99.90
26278;DHT22;14000;52.056;8.510;2023-02-28T16:47:23;5.70;99.90
26278;DHT22;14000;52.056;8.510;2023-02-28T16:49:49;5.60;99.90
26278;DHT22;14000;52.056;8.510;2023-02-28T16:52:15;5.50;99.90
26278;DHT22;14000;52.056;8.510;2023-02-28T16:54:41;5.40;99.90
26278;DHT22;14000;52.056;8.510;2023-02-28T16:57:17;5.40;99.90
26278;DHT22;14000;52.056;8.510;2023-02-28T16:59:43;5.20;99.90
26278;DHT22;14000;52.056;8.510;2023-02-28T17:02:14;5.10;99.90
26278;DHT22;14000;52.056;8.510;2023-02-28T17:04:40;5.00;99.90
26278;DHT22;14000;52.056;8.510;2023-02-28T17:07:11;4.90;99.90
26278;DHT22;14000;52.056;8.510;2023-02-28T17:09:37;4.80;99.90
26278;DHT22;14000;52.056;8.510;2023-02-28T17:12:03;4.70;99.90
26278;DHT22;14000;52.056;8.510;2023-02-28T17:14:29;4.60;99.90
26278;DHT22;14000;52.056;8.510;2023-02-28T17:16:54;4.50;99.90
26278;DHT22;14000;52.056;8.510;2023-02-28T17:19:20;4.30;99.90
26278;DHT22;14000;52.056;8.510;2023-02-28T17:21:46;4.30;99.90
26278;DHT22;14000;52.056;8.510;2023-02-28T17:24:11;4.20;99.90
26278;DHT22;14000;52.056;8.510;2023-02-28T17:26:42;4.10;99.90
26278;DHT22;14000;52.056;8.510;2023-02-28T17:29:17;4.10;99.90
26278;DHT22;14000;52.056;8.510;2023-02-28T17:31:43;4.00;99.90
26278;DHT22;14000;52.056;8.510;2023-02-28T17:34:09;4.00;99.90
26278;DHT22;14000;52.056;8.510;2023-02-28T17:36:35;3.90;99.90
26278;DHT22;14000;52.056;8.510;2023-02-28T17:39:03;3.80;99.90
26278;DHT22;14000;52.056;8.510;2023-02-28T17:41:29;3.70;99.90
26278;DHT22;14000;52.056;8.510;2023-02-28T17:43:56;3.60;99.90
26278;DHT22;14000;52.056;8.510;2023-02-28T17:46:23;3.50;99.90
26278;DHT22;14000;52.056;8.510;2023-02-28T17:48:51;3.50;99.90
26278;DHT22;14000;52.056;8.510;2023-02-28T17:51:19;3.50;99.90
26278;DHT22;14000;52.056;8.510;2023-02-28T17:53:45;3.50;99.90
26278;DHT22;14000;52.056;8.510;2023-02-28T17:56:13;3.50;99.90
26278;DHT22;14000;52.056;8.510;2023-02-28T17:58:39;3.40;99.90
26278;DHT22;14000;52.056;8.510;2023-02-28T18:01:05;3.40;99.90
26278;DHT22;14000;52.056;8.510;2023-02-28T18:03:31;3.30;99.90
26278;DHT22;14000;52.056;8.510;2023-02-28T18:05:58;3.20;99.90
26278;DHT22;14000;52.056;8.510;2023-02-28T18:08:23;3.10;99.90